Time;durP1;ratioP1;P1;durP2;ratioP2;P2;SDS_P1;SDS_P2;PMS_P1;PMS_P2;Temp;Humidity;BMP_temperature;BMP_pressure;BME280_temperature;BME280_humidity;BME280_pressure;Samples;Min_cycle;Max_cycle;Signal;HPM_P1;HPM_P2
2023/10/12 00:02:05;;;;;;;11.55;1.73;;;13.70;99.90;;;;;;5033485;28;20541;-86
2023/10/12 00:04:41;;;;;;;8.93;1.90;;;13.70;99.90;;;;;;5033474;28;20048;-86
2023/10/12 00:07:15;;;;;;;8.38;1.65;;;13.60;99.90;;;;;;5033803;28;20128;-86
2023/10/12 00:09:48;;;;;;;5.47;1.48;;;13.60;99.90;;;;;;5030282;28;20701;-86
2023/10/12 00:12:16;;;;;;;15.65;2.08;;;13.50;99.90;;;;;;5024372;28;20045;-86
2023/10/12 00:14:42;;;;;;;13.82;1.85;;;13.60;99.90;;;;;;5033455;28;20130;-86
2023/10/12 00:17:09;;;;;;;7.85;1.50;;;13.50;99.90;;;;;;5033975;28;20095;-86
2023/10/12 00:19:38;;;;;;;9.13;1.77;;;13.50;99.90;;;;;;5033629;28;20545;-86
2023/10/12 00:22:11;;;;;;;12.45;2.00;;;13.50;99.90;;;;;;5050204;28;20053;-86
2023/10/12 00:24:41;;;;;;;5.82;1.60;;;13.60;99.90;;;;;;5033087;28;20056;-86
2023/10/12 00:27:12;;;;;;;11.20;2.45;;;13.50;99.90;;;;;;5032211;28;20088;-86
2023/10/12 00:29:39;;;;;;;9.45;1.85;;;13.40;99.90;;;;;;5030582;28;20042;-86
2023/10/12 00:32:10;;;;;;;9.90;1.60;;;13.40;99.90;;;;;;5037402;28;20041;-86
2023/10/12 00:34:46;;;;;;;7.25;1.50;;;13.40;99.90;;;;;;5037075;28;20075;-86
2023/10/12 00:37:14;;;;;;;10.90;1.60;;;13.40;99.90;;;;;;5053644;28;20041;-86
2023/10/12 00:40:21;;;;;;;8.52;1.60;;;13.70;99.90;;;;;;5050836;28;20046;-86
2023/10/12 00:42:51;;;;;;;10.18;1.58;;;13.40;99.90;;;;;;5048236;28;20099;-86
2023/10/12 00:45:29;;;;;;;8.32;1.42;;;13.40;99.90;;;;;;5038270;28;20038;-86
2023/10/12 00:48:01;;;;;;;6.97;1.40;;;13.40;99.90;;;;;;5036664;28;20041;-86
2023/10/12 00:50:29;;;;;;;6.88;1.27;;;13.60;99.90;;;;;;5033370;28;20045;-86
2023/10/12 00:53:02;;;;;;;6.32;1.50;;;13.50;99.90;;;;;;5036874;28;20075;-86
2023/10/12 00:55:35;;;;;;;13.68;2.03;;;13.50;99.90;;;;;;5037033;28;20049;-86
2023/10/12 00:58:05;;;;;;;8.68;1.85;;;13.40;99.90;;;;;;5029120;28;20129;-86
2023/10/12 01:00:43;;;;;;;7.05;1.40;;;13.40;99.90;;;;;;5037065;28;20033;-86
2023/10/12 01:03:27;;;;;;;9.45;1.38;;;13.50;99.90;;;;;;5036982;28;20073;-85
2023/10/12 01:08:46;;;;;;;8.15;1.75;;;13.50;99.90;;;;;;5040923;28;20134;-85
2023/10/12 01:11:33;;;;;;;12.77;1.70;;;13.60;99.90;;;;;;5036825;28;20072;-86
2023/10/12 01:14:09;;;;;;;9.25;1.27;;;13.50;99.90;;;;;;5036873;28;20034;-85
2023/10/12 01:16:52;;;;;;;11.05;1.80;;;13.50;99.90;;;;;;5024644;28;20042;-86
2023/10/12 01:19:22;;;;;;;15.27;2.05;;;13.60;99.90;;;;;;5037288;28;20092;-86
2023/10/12 01:22:11;;;;;;;9.13;1.58;;;13.50;99.90;;;;;;5036646;28;20125;-86
2023/10/12 01:24:57;;;;;;;10.05;1.40;;;13.40;99.90;;;;;;5036074;28;20041;-86
2023/10/12 01:27:25;;;;;;;9.30;1.50;;;13.40;99.90;;;;;;5024203;28;20124;-86
2023/10/12 01:29:53;;;;;;;6.45;1.40;;;13.50;99.90;;;;;;5035980;28;20047;-86
2023/10/12 01:32:22;;;;;;;12.32;1.63;;;13.40;99.90;;;;;;5028296;28;20469;-86
2023/10/12 01:34:52;;;;;;;10.95;1.40;;;13.30;99.90;;;;;;5034967;28;20132;-86
2023/10/12 01:37:26;;;;;;;7.88;1.60;;;13.40;99.90;;;;;;5034974;28;20439;-86
2023/10/12 01:39:58;;;;;;;11.30;1.77;;;13.40;99.90;;;;;;5039563;28;20908;-86
2023/10/12 01:42:45;;;;;;;13.90;1.80;;;13.40;99.90;;;;;;5035980;28;20061;-86
2023/10/12 01:45:18;;;;;;;9.32;1.65;;;13.30;99.90;;;;;;5051827;28;20178;-86
2023/10/12 01:47:56;;;;;;;7.55;1.50;;;13.40;99.90;;;;;;5035985;28;20049;-86
2023/10/12 01:50:26;;;;;;;13.63;1.77;;;13.30;99.90;;;;;;5036204;28;20042;-86
2023/10/12 01:52:56;;;;;;;8.85;1.55;;;13.30;99.90;;;;;;5035587;28;20041;-86
2023/10/12 01:55:29;;;;;;;11.27;1.40;;;13.30;99.90;;;;;;5035795;28;20046;-86
2023/10/12 01:57:56;;;;;;;13.57;1.45;;;13.30;99.90;;;;;;5041527;28;20436;-86
2023/10/12 02:00:39;;;;;;;7.82;1.65;;;13.30;99.90;;;;;;5016304;28;20117;-86
2023/10/12 02:03:17;;;;;;;10.68;1.85;;;13.30;99.90;;;;;;5047432;28;20060;-85
2023/10/12 02:05:56;;;;;;;13.82;2.10;;;13.20;99.90;;;;;;5036004;28;20060;-86
2023/10/12 02:08:23;;;;;;;9.68;1.50;;;13.30;99.90;;;;;;5047534;28;20041;-86
2023/10/12 02:11:06;;;;;;;19.55;2.03;;;13.20;99.90;;;;;;5035834;28;20048;-86
2023/10/12 02:13:34;;;;;;;13.02;1.88;;;13.20;99.90;;;;;;5027630;28;20046;-86
2023/10/12 02:16:07;;;;;;;9.60;1.75;;;13.20;99.90;;;;;;5047251;28;20041;-86
2023/10/12 02:18:35;;;;;;;9.05;1.50;;;13.20;99.90;;;;;;5035550;28;20040;-86
2023/10/12 02:21:20;;;;;;;7.57;1.40;;;13.20;99.90;;;;;;5027784;28;20033;-86
2023/10/12 02:26:35;;;;;;;8.95;1.73;;;13.20;99.90;;;;;;5051826;28;20045;-86
2023/10/12 02:32:22;;;;;;;8.55;1.85;;;13.10;99.90;;;;;;5038871;28;20864;-86
2023/10/12 02:34:53;;;;;;;14.10;1.88;;;13.20;99.90;;;;;;5034706;28;20543;-86
2023/10/12 02:37:21;;;;;;;10.80;2.17;;;13.10;99.90;;;;;;5025451;28;20054;-86
2023/10/12 02:39:48;;;;;;;8.75;1.60;;;13.10;99.90;;;;;;5031912;28;20037;-86
2023/10/12 02:47:23;;;;;;;18.40;2.03;;;13.10;99.90;;;;;;5051062;28;20087;-86
2023/10/12 02:52:36;;;;;;;;;;;13.10;99.90;;;;;;5047491;28;20045;-85
2023/10/12 02:55:18;;;;;;;9.90;1.65;;;13.00;99.90;;;;;;5034979;28;20376;-86
2023/10/12 02:57:54;;;;;;;8.25;1.45;;;13.00;99.90;;;;;;5034729;28;20128;-86
2023/10/12 03:00:24;;;;;;;13.18;1.98;;;13.00;99.90;;;;;;5034538;28;20046;-85
2023/10/12 03:02:53;;;;;;;6.07;1.90;;;13.00;99.90;;;;;;5034493;28;20048;-86
2023/10/12 03:05:31;;;;;;;10.93;1.80;;;13.00;99.90;;;;;;5050729;28;20049;-86
2023/10/12 03:08:06;;;;;;;6.28;1.50;;;13.10;99.90;;;;;;5032081;28;20041;-86
2023/10/12 03:10:32;;;;;;;7.78;1.88;;;12.90;99.90;;;;;;5025143;28;20048;-85
2023/10/12 03:13:04;;;;;;;11.75;1.83;;;12.90;99.90;;;;;;5034083;28;20037;-86
2023/10/12 03:15:48;;;;;;;7.63;2.08;;;12.90;99.90;;;;;;5034726;28;20705;-86
2023/10/12 03:18:15;;;;;;;12.50;2.38;;;12.90;99.90;;;;;;5034352;28;20483;-86
2023/10/12 03:20:59;;;;;;;9.57;1.73;;;12.90;99.90;;;;;;5034055;28;20048;-86
2023/10/12 03:23:27;;;;;;;10.57;1.55;;;12.90;99.90;;;;;;5034095;28;20122;-86
2023/10/12 03:25:53;;;;;;;9.95;2.03;;;12.90;99.90;;;;;;5034091;28;20081;-86
2023/10/12 03:28:44;;;;;;;11.63;1.90;;;12.90;99.90;;;;;;5034152;28;20073;-86
2023/10/12 03:31:15;;;;;;;13.32;2.22;;;13.10;99.90;;;;;;5050871;28;20045;-85
2023/10/12 03:33:55;;;;;;;9.45;1.67;;;12.80;99.90;;;;;;5020626;28;20029;-86
2023/10/12 03:36:31;;;;;;;12.18;1.60;;;12.90;99.90;;;;;;5050119;28;20049;-86
2023/10/12 03:47:29;;;;;;;12.45;1.48;;;12.80;99.90;;;;;;5050110;28;20166;-86
2023/10/12 03:50:00;;;;;;;11.80;1.92;;;12.80;99.90;;;;;;5050721;28;20088;-86
2023/10/12 03:52:42;;;;;;;8.88;1.40;;;12.80;99.90;;;;;;5028789;28;20037;-86
2023/10/12 03:57:59;;;;;;;8.73;1.90;;;12.70;99.90;;;;;;5049436;28;20124;-86
2023/10/12 04:00:26;;;;;;;10.43;1.67;;;12.70;99.90;;;;;;5048571;28;20045;-86
2023/10/12 04:08:17;;;;;;;9.25;1.83;;;12.70;99.90;;;;;;5050064;28;20450;-86
2023/10/12 04:19:29;;;;;;;7.53;1.60;;;12.50;99.90;;;;;;5049341;28;20045;-86
2023/10/12 04:21:28;;;;;;;8.73;1.67;;;12.50;99.90;;;;;;5035946;28;20052;-86
2023/10/12 04:26:37;;;;;;;8.95;1.75;;;12.50;99.90;;;;;;5037958;28;20181;-86
2023/10/12 04:29:21;;;;;;;7.15;1.92;;;12.50;99.90;;;;;;5033334;28;20077;-86
2023/10/12 04:31:56;;;;;;;10.35;1.88;;;12.50;99.90;;;;;;5033010;28;20048;-86
2023/10/12 04:34:31;;;;;;;5.57;1.33;;;12.50;99.90;;;;;;5021801;28;20096;-86
2023/10/12 04:37:12;;;;;;;10.32;1.80;;;12.50;99.90;;;;;;5020273;28;20077;-86
2023/10/12 04:39:38;;;;;;;9.68;1.60;;;12.40;99.90;;;;;;5033210;28;20037;-86
2023/10/12 04:42:12;;;;;;;8.70;1.52;;;12.50;99.90;;;;;;5033441;28;20043;-86
2023/10/12 04:44:43;;;;;;;8.65;1.98;;;12.40;99.90;;;;;;5046430;28;20068;-86
2023/10/12 04:47:12;;;;;;;8.98;1.60;;;12.40;99.90;;;;;;5024659;28;20057;-86
2023/10/12 04:57:27;;;;;;;8.07;2.00;;;12.40;99.90;;;;;;5047010;28;20041;-86
2023/10/12 05:05:37;;;;;;;6.65;1.52;;;12.40;99.90;;;;;;5049753;28;20011;-86
2023/10/12 05:08:03;;;;;;;9.02;1.67;;;12.40;99.90;;;;;;5046932;28;20138;-86
2023/10/12 05:13:05;;;;;;;9.15;1.73;;;12.30;99.90;;;;;;5048559;28;20454;-86
2023/10/12 05:15:39;;;;;;;10.10;1.60;;;12.30;99.90;;;;;;5036416;28;20037;-86
2023/10/12 05:18:11;;;;;;;5.18;1.38;;;12.30;99.90;;;;;;5036561;28;20038;-85
2023/10/12 05:20:41;;;;;;;11.57;2.22;;;12.20;99.90;;;;;;5053329;28;20041;-86
2023/10/12 05:23:08;;;;;;;14.13;1.83;;;12.50;99.90;;;;;;5036392;28;20412;-86
2023/10/12 05:25:48;;;;;;;5.60;1.52;;;12.20;99.90;;;;;;5052913;28;20045;-86
2023/10/12 05:28:21;;;;;;;7.78;1.73;;;12.20;99.90;;;;;;5035510;28;20041;-86
2023/10/12 05:30:55;;;;;;;6.75;1.77;;;12.20;99.90;;;;;;5025376;28;20488;-85
2023/10/12 05:36:14;;;;;;;10.38;2.03;;;12.10;99.90;;;;;;5052601;28;20049;-86
2023/10/12 05:38:48;;;;;;;7.15;1.50;;;12.10;99.90;;;;;;5036329;28;20038;-86
2023/10/12 05:41:34;;;;;;;6.97;1.90;;;12.10;99.90;;;;;;5051780;28;20038;-85
2023/10/12 05:44:03;;;;;;;;;;;12.10;99.90;;;;;;5036357;28;20403;-85
2023/10/12 05:46:33;;;;;;;5.95;1.42;;;12.10;99.90;;;;;;5038896;28;19936;-86
2023/10/12 05:49:02;;;;;;;5.40;1.90;;;12.00;99.90;;;;;;5035059;28;20136;-86
2023/10/12 05:51:28;;;;;;;10.25;1.80;;;11.90;99.90;;;;;;5035111;28;20053;-86
2023/10/12 05:54:06;;;;;;;6.47;2.00;;;12.00;99.90;;;;;;5035319;28;20044;-85
2023/10/12 05:56:34;;;;;;;9.50;1.65;;;11.80;99.90;;;;;;5035349;28;20045;-86
2023/10/12 05:59:01;;;;;;;6.18;1.80;;;11.80;99.90;;;;;;5034747;28;20083;-85
2023/10/12 06:01:37;;;;;;;6.60;1.58;;;11.70;99.90;;;;;;5035617;28;20037;-86
2023/10/12 06:04:08;;;;;;;10.73;1.80;;;12.10;99.90;;;;;;5034963;28;20534;-84
2023/10/12 06:06:36;;;;;;;8.07;1.70;;;11.60;99.90;;;;;;5035315;28;20035;-86
2023/10/12 06:09:11;;;;;;;5.15;1.73;;;11.60;99.90;;;;;;5035054;28;20111;-86
2023/10/12 06:11:40;;;;;;;;;;;11.50;99.90;;;;;;5035675;28;20455;-86
2023/10/12 06:14:08;;;;;;;9.63;2.35;;;11.50;99.90;;;;;;5034859;28;20442;-86
2023/10/12 06:16:41;;;;;;;4.05;1.70;;;11.40;99.90;;;;;;5051452;28;20041;-85
2023/10/12 06:19:21;;;;;;;11.07;2.00;;;11.40;99.90;;;;;;5035074;28;20041;-85
2023/10/12 06:21:52;;;;;;;11.38;2.20;;;11.40;99.90;;;;;;5034070;28;20396;-85
2023/10/12 06:24:33;;;;;;;6.88;1.65;;;11.40;99.90;;;;;;5036882;28;20038;-88
2023/10/12 06:29:45;;;;;;;5.40;1.58;;;11.40;99.90;;;;;;5051186;28;20041;-85
2023/10/12 06:32:19;;;;;;;7.43;2.28;;;11.30;99.90;;;;;;5032302;28;20132;-87
2023/10/12 06:35:03;;;;;;;6.65;1.70;;;11.80;99.90;;;;;;5022382;28;20499;-88
2023/10/12 06:37:49;;;;;;;8.00;2.25;;;11.40;99.90;;;;;;5035475;28;20504;-86
2023/10/12 06:48:40;;;;;;;9.90;2.53;;;11.40;99.90;;;;;;5050303;28;20050;-85
2023/10/12 06:51:10;;;;;;;12.50;2.75;;;11.50;99.90;;;;;;5034611;28;20045;-85
2023/10/12 06:53:40;;;;;;;10.55;2.70;;;11.50;99.90;;;;;;5034274;28;20037;-85
2023/10/12 06:58:43;;;;;;;13.98;2.55;;;11.50;99.90;;;;;;5050631;28;20470;-86
2023/10/12 07:01:27;;;;;;;12.60;2.83;;;11.90;99.90;;;;;;5021198;28;20037;-86
2023/10/12 07:03:54;;;;;;;9.80;2.42;;;11.80;99.90;;;;;;5023317;28;20041;-86
2023/10/12 07:06:21;;;;;;;15.48;2.67;;;11.80;99.90;;;;;;5050504;28;20041;-85
2023/10/12 07:08:48;;;;;;;13.20;2.63;;;11.70;99.90;;;;;;5050055;28;20054;-85
2023/10/12 07:11:18;;;;;;;15.65;2.70;;;12.10;99.90;;;;;;5047425;28;20046;-85
2023/10/12 07:13:45;;;;;;;9.80;2.13;;;11.70;99.90;;;;;;5023995;28;20037;-85
2023/10/12 07:16:16;;;;;;;10.68;2.40;;;11.70;99.90;;;;;;5037152;28;20049;-89
2023/10/12 07:18:43;;;;;;;20.05;2.90;;;11.70;99.90;;;;;;5034086;28;20075;-85
2023/10/12 07:21:22;;;;;;;13.52;2.55;;;11.80;99.90;;;;;;5033647;28;20036;-85
2023/10/12 07:23:52;;;;;;;11.13;2.40;;;12.30;99.90;;;;;;5033572;28;20049;-85
2023/10/12 07:26:19;;;;;;;12.80;2.90;;;11.80;99.90;;;;;;5033758;28;20411;-86
2023/10/12 07:28:49;;;;;;;11.15;2.90;;;11.80;99.90;;;;;;5033511;28;20042;-85
2023/10/12 07:41:41;;;;;;;10.07;2.67;;;12.00;99.90;;;;;;5050243;28;20045;-87
2023/10/12 07:44:09;;;;;;;12.05;2.92;;;12.10;99.90;;;;;;5050506;28;20088;-87
2023/10/12 07:46:35;;;;;;;8.90;3.03;;;12.60;99.90;;;;;;5050264;28;20049;-87
2023/10/12 07:52:05;;;;;;;12.67;2.97;;;12.20;99.90;;;;;;5039963;28;20050;-88
2023/10/12 07:57:20;;;;;;;14.60;2.42;;;12.30;99.90;;;;;;5037098;28;20515;-88
2023/10/12 08:08:37;;;;;;;7.05;2.38;;;12.90;99.90;;;;;;5103913;28;20488;-93
2023/10/12 08:11:31;;;;;;;13.85;2.38;;;12.60;99.90;;;;;;5089157;28;20087;-93
2023/10/12 08:14:19;;;;;;;6.18;1.75;;;12.70;99.90;;;;;;5095316;28;20043;-94
2023/10/12 08:17:29;;;;;;;9.45;1.92;;;12.50;99.90;;;;;;5114489;28;20071;-93
2023/10/12 08:19:55;;;;;;;10.88;1.90;;;12.40;99.90;;;;;;5101751;28;20036;-93
2023/10/12 08:22:29;;;;;;;12.65;1.80;;;12.70;99.90;;;;;;5128391;28;20043;-93
2023/10/12 08:25:04;;;;;;;13.02;1.88;;;12.80;99.90;;;;;;5127044;28;20043;-94
2023/10/12 08:27:52;;;;;;;10.80;1.77;;;12.70;99.90;;;;;;5082974;28;20083;-94
2023/10/12 08:30:23;;;;;;;9.73;1.75;;;12.60;99.90;;;;;;5090292;28;20044;-93
2023/10/12 08:33:09;;;;;;;9.38;1.63;;;12.80;99.90;;;;;;5082141;28;20052;-94
2023/10/12 08:35:39;;;;;;;12.10;2.25;;;12.80;99.90;;;;;;5074647;28;20044;-94
2023/10/12 08:38:12;;;;;;;9.60;1.92;;;13.10;99.90;;;;;;5120941;28;20406;-94
2023/10/12 08:52:18;;;;;;;8.95;1.90;;;13.10;99.90;;;;;;5054149;28;20503;-92
2023/10/12 08:55:12;;;;;;;8.32;2.05;;;13.20;99.90;;;;;;5037284;28;20132;-95
2023/10/12 08:57:56;;;;;;;6.95;1.70;;;13.40;99.90;;;;;;5037766;28;20041;-95
2023/10/12 09:05:51;;;;;;;5.78;1.50;;;13.70;99.90;;;;;;5034062;28;20053;-95
2023/10/12 09:11:02;;;;;;;10.63;1.80;;;13.80;99.90;;;;;;5047219;28;20531;-95
2023/10/12 09:13:37;;;;;;;12.45;1.80;;;13.90;99.90;;;;;;5025359;28;20103;-94
2023/10/12 09:16:09;;;;;;;5.57;1.42;;;14.00;99.90;;;;;;5090583;28;20028;-95
2023/10/12 09:18:49;;;;;;;12.68;1.70;;;14.10;99.90;;;;;;5081213;28;20041;-94
2023/10/12 09:21:57;;;;;;;12.48;1.50;;;14.10;99.90;;;;;;5084211;28;20077;-95
2023/10/12 09:24:32;;;;;;;7.82;1.50;;;14.10;99.90;;;;;;5074645;28;20067;-94
2023/10/12 09:27:26;;;;;;;8.88;1.80;;;14.10;99.90;;;;;;5075588;28;20045;-95
2023/10/12 09:30:03;;;;;;;9.90;1.52;;;14.10;99.90;;;;;;5080348;28;20061;-94
2023/10/12 09:32:57;;;;;;;6.85;1.63;;;14.10;99.90;;;;;;5094363;28;20102;-94
2023/10/12 09:35:40;;;;;;;12.32;1.80;;;14.20;99.90;;;;;;5086763;28;20056;-94
2023/10/12 09:38:12;;;;;;;8.25;1.40;;;14.20;99.90;;;;;;5089917;28;20079;-94
2023/10/12 09:41:05;;;;;;;13.10;1.88;;;14.10;99.90;;;;;;5082550;28;20380;-96
2023/10/12 09:43:54;;;;;;;8.73;1.40;;;14.20;99.90;;;;;;5081542;28;20059;-95
2023/10/12 09:46:55;;;;;;;6.47;1.58;;;14.30;99.90;;;;;;5096542;28;20075;-95
2023/10/12 09:49:43;;;;;;;9.70;1.73;;;14.30;99.90;;;;;;5110492;28;20067;-94
2023/10/12 09:52:46;;;;;;;10.82;1.95;;;14.50;99.90;;;;;;5094012;28;20044;-96
2023/10/12 09:55:36;;;;;;;11.07;1.55;;;14.50;99.90;;;;;;5088342;28;20126;-93
2023/10/12 09:58:23;;;;;;;10.93;1.63;;;14.20;99.90;;;;;;5081652;28;20070;-87
2023/10/12 10:00:55;;;;;;;10.43;1.40;;;14.50;99.90;;;;;;5096034;28;20051;-95
2023/10/12 10:03:35;;;;;;;6.72;1.50;;;14.50;99.90;;;;;;5093607;28;20093;-95
2023/10/12 10:06:19;;;;;;;5.50;1.45;;;14.60;99.90;;;;;;5105684;28;20036;-96
2023/10/12 10:09:19;;;;;;;8.68;1.50;;;14.70;99.90;;;;;;5094216;28;20052;-93
2023/10/12 10:11:57;;;;;;;8.85;1.33;;;14.50;99.90;;;;;;5095848;28;20127;-93
2023/10/12 10:14:43;;;;;;;9.13;1.92;;;14.60;99.90;;;;;;5100333;28;20079;-93
2023/10/12 10:17:16;;;;;;;9.90;1.73;;;14.60;99.90;;;;;;5097332;28;20037;-93
2023/10/12 10:19:56;;;;;;;9.55;1.88;;;14.80;99.90;;;;;;5103099;28;20221;-93
2023/10/12 10:22:38;;;;;;;10.35;1.95;;;14.90;99.90;;;;;;5107019;28;20398;-94
2023/10/12 10:32:07;;;;;;;8.07;2.55;;;15.30;99.90;;;;;;5128314;28;20070;-93
2023/10/12 10:34:56;;;;;;;7.55;1.60;;;15.40;99.90;;;;;;5091659;28;20134;-93
2023/10/12 10:37:58;;;;;;;10.25;1.50;;;15.70;99.90;;;;;;5054880;28;20093;-93
2023/10/12 10:43:31;;;;;;;8.57;1.30;;;15.60;99.90;;;;;;5078895;28;20071;-93
2023/10/12 10:46:26;;;;;;;8.38;1.23;;;16.00;99.90;;;;;;5071511;28;20045;-92
2023/10/12 10:49:05;;;;;;;7.43;1.20;;;15.90;99.90;;;;;;5075385;28;20059;-92
2023/10/12 10:51:42;;;;;;;8.40;1.30;;;16.00;99.90;;;;;;5062023;28;20088;-92
2023/10/12 10:54:18;;;;;;;6.40;1.17;;;16.00;99.90;;;;;;5074994;28;20044;-93
2023/10/12 10:56:53;;;;;;;9.63;1.50;;;15.90;99.90;;;;;;5075108;28;20056;-92
2023/10/12 10:59:38;;;;;;;7.10;1.48;;;15.80;99.90;;;;;;5055226;28;20084;-92
2023/10/12 11:02:11;;;;;;;11.55;1.92;;;15.80;99.90;;;;;;5069211;28;20053;-93
2023/10/12 11:04:44;;;;;;;7.70;1.30;;;15.70;99.90;;;;;;5059627;28;20045;-92
2023/10/12 11:07:17;;;;;;;7.50;1.20;;;15.70;99.90;;;;;;5063522;28;20130;-91
2023/10/12 11:12:30;;;;;;;7.18;1.45;;;15.40;99.90;;;;;;5114695;28;20128;-90
2023/10/12 11:15:00;;;;;;;6.97;1.17;;;15.50;99.90;;;;;;5103430;28;20048;-88
2023/10/12 11:17:35;;;;;;;11.60;1.63;;;15.40;99.90;;;;;;5104248;28;20482;-89
2023/10/12 11:20:07;;;;;;;7.97;1.65;;;15.40;99.90;;;;;;5091400;28;20490;-89
2023/10/12 11:22:37;;;;;;;10.25;1.50;;;15.30;99.90;;;;;;5109746;28;20047;-88
2023/10/12 11:25:10;;;;;;;8.23;1.17;;;15.30;99.90;;;;;;5099073;28;20062;-88
2023/10/12 11:27:39;;;;;;;9.23;1.30;;;15.30;99.90;;;;;;5111603;28;20039;-89
2023/10/12 11:30:07;;;;;;;10.88;1.55;;;15.30;99.90;;;;;;5097748;28;20494;-89
2023/10/12 11:32:53;;;;;;;6.90;1.65;;;15.30;99.90;;;;;;5098819;28;20096;-85
2023/10/12 11:35:42;;;;;;;10.40;1.52;;;15.40;99.90;;;;;;5093366;28;20491;-87
2023/10/12 11:38:17;;;;;;;10.32;1.50;;;15.30;99.90;;;;;;5099151;28;20040;-89
2023/10/12 11:40:52;;;;;;;6.60;1.05;;;15.40;99.90;;;;;;5111416;28;20553;-88
2023/10/12 11:43:49;;;;;;;9.55;1.77;;;15.30;99.90;;;;;;5127190;28;20059;-89
2023/10/12 11:46:16;;;;;;;6.25;1.23;;;15.30;99.90;;;;;;5099398;28;20059;-89
2023/10/12 11:48:43;;;;;;;7.28;1.13;;;15.40;99.90;;;;;;5104669;28;20736;-89
2023/10/12 11:51:13;;;;;;;13.15;1.40;;;15.40;99.90;;;;;;5091631;28;20041;-89
2023/10/12 11:53:41;;;;;;;5.05;0.98;;;15.40;99.90;;;;;;5103710;28;20037;-89
2023/10/12 11:56:29;;;;;;;8.60;1.48;;;15.40;99.90;;;;;;5090433;28;20032;-89
2023/10/12 11:58:55;;;;;;;9.18;1.25;;;15.50;99.90;;;;;;5097353;28;20050;-89
2023/10/12 12:01:22;;;;;;;8.07;1.70;;;15.60;99.90;;;;;;5093006;28;20044;-89
2023/10/12 12:03:54;;;;;;;6.25;1.20;;;15.60;99.90;;;;;;5090556;28;20048;-89
2023/10/12 12:06:26;;;;;;;8.27;1.30;;;15.50;99.90;;;;;;5088246;28;20448;-89
2023/10/12 12:08:59;;;;;;;5.95;1.13;;;15.70;99.90;;;;;;5090851;28;20055;-88
2023/10/12 12:11:37;;;;;;;8.23;1.25;;;15.70;99.90;;;;;;5090880;28;20048;-89
2023/10/12 12:14:06;;;;;;;8.43;1.38;;;15.80;99.90;;;;;;5103390;28;20192;-89
2023/10/12 12:16:38;;;;;;;7.82;1.20;;;15.80;99.90;;;;;;5102062;28;20050;-89
2023/10/12 12:19:05;;;;;;;9.18;1.20;;;15.80;99.90;;;;;;5097353;28;20036;-90
2023/10/12 12:21:34;;;;;;;9.38;1.65;;;15.80;99.90;;;;;;5112369;28;20097;-89
2023/10/12 12:27:37;;;;;;;4.43;1.42;;;15.60;99.90;;;;;;5129794;28;20065;-89
2023/10/12 12:30:09;;;;;;;7.18;1.80;;;15.50;99.90;;;;;;5098546;28;20045;-89
2023/10/12 12:32:38;;;;;;;15.65;2.45;;;15.40;99.90;;;;;;5095786;28;20066;-89
2023/10/12 12:35:06;;;;;;;6.50;1.20;;;15.40;99.90;;;;;;5094341;28;20040;-89
2023/10/12 12:37:38;;;;;;;9.13;1.38;;;15.40;99.90;;;;;;5106038;28;20032;-89
2023/10/12 12:42:53;;;;;;;9.88;1.45;;;15.40;99.90;;;;;;5097034;28;20040;-89
2023/10/12 12:45:19;;;;;;;10.60;1.58;;;15.30;99.90;;;;;;5110871;28;20055;-89
2023/10/12 12:47:55;;;;;;;6.88;1.20;;;15.30;99.90;;;;;;5110163;28;20052;-89
2023/10/12 12:50:22;;;;;;;6.00;1.23;;;15.30;99.90;;;;;;5103680;28;20036;-89
2023/10/12 12:52:49;;;;;;;5.32;1.20;;;15.30;99.90;;;;;;5098652;28;20032;-89
2023/10/12 12:55:21;;;;;;;9.00;1.27;;;15.20;99.90;;;;;;5114269;28;20390;-89
2023/10/12 12:57:52;;;;;;;10.55;1.52;;;15.20;99.90;;;;;;5108307;28;20041;-90
2023/10/12 13:00:21;;;;;;;10.77;1.58;;;15.20;99.90;;;;;;5103161;28;20051;-90
2023/10/12 13:02:49;;;;;;;5.47;1.27;;;15.20;99.90;;;;;;5106317;28;20126;-90
2023/10/12 13:05:18;;;;;;;10.02;1.77;;;15.40;99.90;;;;;;5101301;28;20467;-89
2023/10/12 13:07:46;;;;;;;10.85;1.58;;;15.30;99.90;;;;;;5122024;28;20079;-89
2023/10/12 13:10:16;;;;;;;9.80;1.42;;;15.30;99.90;;;;;;5114496;28;20113;-90
2023/10/12 13:12:42;;;;;;;13.55;2.72;;;15.30;99.90;;;;;;5100629;28;20074;-89
2023/10/12 13:15:10;;;;;;;10.20;1.48;;;15.30;99.90;;;;;;5110015;28;20072;-90
2023/10/12 13:17:38;;;;;;;11.82;1.83;;;15.30;99.90;;;;;;5097379;28;20433;-90
2023/10/12 13:20:06;;;;;;;7.30;1.38;;;15.30;99.90;;;;;;5093591;28;20041;-89
2023/10/12 13:22:33;;;;;;;8.35;1.42;;;15.30;99.90;;;;;;5093912;28;20807;-89
2023/10/12 13:25:00;;;;;;;9.55;1.75;;;15.40;99.90;;;;;;5105833;28;20132;-90
2023/10/12 13:27:27;;;;;;;9.25;1.52;;;15.30;99.90;;;;;;5112303;28;20123;-89
2023/10/12 13:30:00;;;;;;;8.13;1.38;;;15.30;99.90;;;;;;5113298;28;20044;-90
2023/10/12 13:32:27;;;;;;;10.55;1.70;;;15.40;99.90;;;;;;5094975;28;20040;-90
2023/10/12 13:34:58;;;;;;;4.43;1.02;;;15.30;99.90;;;;;;5110226;28;20036;-89
2023/10/12 13:37:30;;;;;;;7.18;1.70;;;15.30;99.90;;;;;;5104833;28;20036;-91
2023/10/12 13:39:58;;;;;;;9.95;1.40;;;15.30;99.90;;;;;;5098079;28;20040;-90
2023/10/12 13:42:28;;;;;;;7.72;1.80;;;15.30;99.90;;;;;;5099349;28;20490;-90
2023/10/12 13:44:56;;;;;;;5.47;1.40;;;15.30;99.90;;;;;;5103850;28;20040;-90
2023/10/12 13:47:25;;;;;;;8.60;1.30;;;15.30;99.90;;;;;;5106473;28;20044;-90
2023/10/12 13:49:54;;;;;;;6.25;1.50;;;15.30;99.90;;;;;;5095411;28;20094;-90
2023/10/12 13:52:20;;;;;;;10.93;1.42;;;15.20;99.90;;;;;;5102918;28;20047;-90
2023/10/12 13:54:52;;;;;;;7.32;1.60;;;15.20;99.90;;;;;;5084244;28;20875;-89
2023/10/12 13:57:19;;;;;;;10.60;1.83;;;15.20;99.90;;;;;;5106157;28;20139;-90
2023/10/12 13:59:45;;;;;;;6.35;1.20;;;15.20;99.90;;;;;;5104713;28;20056;-89
2023/10/12 14:02:13;;;;;;;6.03;1.13;;;15.10;99.90;;;;;;5105352;28;20094;-89
2023/10/12 14:04:40;;;;;;;8.70;1.20;;;15.10;99.90;;;;;;5099424;28;20043;-89
2023/10/12 14:07:07;;;;;;;7.38;1.88;;;15.10;99.90;;;;;;5112943;28;20036;-89
2023/10/12 14:09:34;;;;;;;8.13;1.30;;;15.10;99.90;;;;;;5106852;28;20040;-89
2023/10/12 14:12:01;;;;;;;10.80;1.45;;;15.10;99.90;;;;;;5112798;28;20048;-89
2023/10/12 14:14:28;;;;;;;6.57;1.50;;;15.00;99.90;;;;;;5104870;28;20080;-89
2023/10/12 14:16:55;;;;;;;5.95;1.13;;;15.10;99.90;;;;;;5094383;28;20098;-89
2023/10/12 14:19:31;;;;;;;12.10;2.28;;;15.10;99.90;;;;;;5092308;28;20445;-90
2023/10/12 14:22:07;;;;;;;;;;;15.10;99.90;;;;;;5095362;28;20094;-89
2023/10/12 14:24:34;;;;;;;9.90;1.55;;;15.10;99.90;;;;;;5105152;28;19920;-89
2023/10/12 14:27:01;;;;;;;9.10;1.63;;;15.10;99.90;;;;;;5112275;28;20036;-89
2023/10/12 14:29:29;;;;;;;11.27;1.45;;;15.20;99.90;;;;;;5099974;28;20094;-90
2023/10/12 14:32:03;;;;;;;13.90;1.42;;;15.10;99.90;;;;;;5097673;28;20048;-89
2023/10/12 14:34:32;;;;;;;10.88;2.80;;;14.90;99.90;;;;;;5111098;28;20074;-90
2023/10/12 14:37:13;;;;;;;10.38;2.67;;;15.00;99.90;;;;;;5100068;28;20068;-90
2023/10/12 14:39:40;;;;;;;11.18;4.40;;;15.00;99.90;;;;;;5100745;28;20513;-90
2023/10/12 14:42:08;;;;;;;8.88;3.83;;;14.80;99.90;;;;;;5112263;28;20032;-90
2023/10/12 14:44:43;;;;;;;10.27;2.10;;;14.80;99.90;;;;;;5111949;28;20079;-90
2023/10/12 14:47:10;;;;;;;11.45;5.03;;;14.70;99.90;;;;;;5100907;28;20044;-90
2023/10/12 14:49:37;;;;;;;8.57;2.25;;;14.70;99.90;;;;;;5106580;28;20052;-90
2023/10/12 14:52:06;;;;;;;9.63;2.90;;;14.60;99.90;;;;;;5087330;28;20489;-89
2023/10/12 14:54:39;;;;;;;13.07;4.65;;;14.60;99.90;;;;;;5093836;28;20119;-89
2023/10/12 14:57:10;;;;;;;9.88;3.40;;;14.50;99.90;;;;;;5101864;28;20068;-90
2023/10/12 14:59:37;;;;;;;13.13;4.97;;;14.40;99.90;;;;;;5093588;28;20041;-85
2023/10/12 15:02:09;;;;;;;12.77;3.10;;;14.40;99.90;;;;;;5101185;28;20413;-82
2023/10/12 15:04:42;;;;;;;9.07;2.03;;;14.30;99.90;;;;;;5118274;28;20055;-87
2023/10/12 15:07:09;;;;;;;7.60;1.98;;;14.20;99.90;;;;;;5106297;28;20040;-84
2023/10/12 15:09:36;;;;;;;7.57;1.48;;;14.10;99.90;;;;;;5103715;28;20048;-89
2023/10/12 15:12:05;;;;;;;10.27;2.10;;;14.00;99.90;;;;;;5107788;28;20035;-89
2023/10/12 15:14:36;;;;;;;8.57;2.70;;;13.90;99.90;;;;;;5094774;28;20583;-89
2023/10/12 15:17:02;;;;;;;10.77;3.15;;;14.10;99.90;;;;;;5095071;28;20501;-89
2023/10/12 15:19:34;;;;;;;10.20;2.03;;;13.80;99.90;;;;;;5095040;28;20039;-89
2023/10/12 15:22:06;;;;;;;12.75;3.95;;;14.00;99.90;;;;;;5108000;28;20443;-89
2023/10/12 15:24:42;;;;;;;8.52;1.88;;;13.60;99.90;;;;;;5094681;28;20043;-89
2023/10/12 15:27:10;;;;;;;25.52;14.02;;;13.60;99.90;;;;;;5095166;28;20047;-89
2023/10/12 15:29:37;;;;;;;8.90;2.40;;;13.60;99.90;;;;;;5123818;28;20092;-88
2023/10/12 15:32:04;;;;;;;17.35;6.90;;;13.50;99.90;;;;;;5109269;28;20040;-89
2023/10/12 15:34:31;;;;;;;33.83;23.70;;;13.50;99.90;;;;;;5128272;28;20494;-88
2023/10/12 15:37:01;;;;;;;26.02;17.20;;;13.40;99.90;;;;;;5127990;28;20492;-88